FW1424 Weather Reports


Display with metric or nautical units.
time (UTC)temp
F
wind
direction
speed
MPH
gust
MPH
rain 1hr
in
rain 24hr
in
rain mn
in
humidity
%
barometer
mb
20201101015019 53 180 8.0 11.0 0.02 0.04 0.02 93 1004.5
20201101014028 53 157 6.0 9.0 0.02 0.04 0.02 93 1004.6
20201101013030 53 157 7.0 10.0 0.01 0.03 0.01 92 1004.4
20201101012022 53 180 7.0 10.0 0.01 0.03 0.01 92 1004.8
20201101011035 53 180 7.0 10.0 0.00 0.03 0.00 92 1005.0
20201101010109 53 180 5.0 9.0 0.00 0.03 0.00 92 1005.1
20201101005913 53 180 6.0 9.0 0.00 0.02 0.00 91 1005.2
20201031231417 54 157 7.0 11.0 0.00 0.02 0.00 91 1006.0
20201031230417 54 180 8.0 12.0 0.00 0.02 0.00 91 1006.0
20201031225426 54 202 9.0 13.0 0.00 0.02 0.02 91 1006.1
20201031224416 54 180 6.0 9.0 0.00 0.02 0.02 92 1006.2
20201031223416 54 180 7.0 11.0 0.00 0.02 0.02 92 1006.3
20201031222419 54 180 7.0 10.0 0.00 0.02 0.02 92 1006.3
20201031221416 54 180 11.0 17.0 0.00 0.02 0.02 92 1006.2
20201031220418 54 157 6.0 7.0 0.00 0.02 0.02 93 1006.3
20201031220335 54 157 7.0 11.0 0.00 0.02 0.02 93 1006.5
20201031201222 53 157 7.0 11.0 0.00 0.02 0.02 94 1008.4
20201031200232 53 157 7.0 12.0 0.00 0.01 0.01 94 1008.6
20201031195219 53 180 8.0 12.0 0.00 0.01 0.01 94 1008.7
20201031194222 53 180 4.0 7.0 0.00 0.01 0.01 94 1008.8
20201031193219 53 157 10.0 14.0 0.00 0.01 0.01 94 1008.7
20201031192321 53 157 7.0 7.0 0.00 0.01 0.01 94 1008.9
20201031192203 53 157 11.0 15.0 0.00 0.01 0.01 94 1008.9
20201031173418 52 157 10.0 17.0 0.00 0.00 0.00 93 1010.1
20201031172419 52 157 11.0 16.0 0.00 0.00 0.00 93 1010.2
20201031171418 52 157 11.0 16.0 0.00 0.00 0.00 92 1010.3
20201031170422 52 157 11.0 16.0 0.00 0.00 0.00 92 1010.4
20201031165419 52 135 10.0 12.0 0.00 0.00 0.00 92 1010.6
20201031165338 52 157 13.0 17.0 0.00 0.00 0.00 92 1010.9
20201031150621 52 157 6.0 7.0 0.00 0.00 0.00 92 1012.5
20201031145620 52 157 7.0 13.0 0.00 0.00 0.00 92 1012.6
20201031144618 52 157 8.0 12.0 0.00 0.00 0.00 92 1012.8
20201031143620 52 135 10.0 11.0 0.00 0.00 0.00 93 1012.9
20201031143534 52 135 6.0 8.0 0.00 0.00 0.00 93 1013.1
20201031124723 50 157 6.0 10.0 0.00 0.03 0.00 95 1014.4
20201031123718 50 157 6.0 9.0 0.00 0.03 0.00 95 1014.5
20201031122718 50 157 8.0 10.0 0.00 0.03 0.00 95 1014.6
20201031122653 50 157 7.0 16.0 0.00 0.03 0.00 95 1014.7
20201031104318 47 135 6.0 9.0 0.00 0.06 0.00 95 1015.6
20201031103317 47 157 7.0 9.0 0.00 0.07 0.00 95 1015.8
20201031102319 47 157 9.0 10.0 0.00 0.07 0.00 95 1015.9
20201031101317 46 157 6.0 8.0 0.00 0.07 0.00 95 1016.0
20201031100319 47 157 6.0 8.0 0.00 0.07 0.00 95 1016.1
20201031095317 46 157 2.0 4.0 0.00 0.08 0.00 95 1016.4
20201031094320 46 157 5.0 7.0 0.00 0.09 0.00 95 1016.5
20201031093317 46 157 1.0 3.0 0.00 0.10 0.00 95 1016.6
20201031092316 46 157 6.0 8.0 0.00 0.11 0.00 95 1016.6
20201031091319 46 157 8.0 9.0 0.00 0.11 0.00 95 1016.6
20201031091232 46 157 7.0 9.0 0.00 0.11 0.00 95 1016.6
20201031072617 45 157 6.0 8.0 0.00 0.17 0.00 94 1017.0
20201031071619 46 180 6.0 9.0 0.00 0.18 0.00 95 1016.9
20201031070619 46 157 7.0 8.0 0.00 0.18 0.00 94 1016.8
20201031065620 45 157 7.0 9.0 0.00 0.18 0.00 94 1016.8
20201031064616 45 180 4.0 6.0 0.00 0.18 0.00 94 1016.8
20201031063619 46 202 3.0 3.0 0.00 0.18 0.00 94 1016.9
20201031062618 46 202 1.0 2.0 0.00 0.18 0.00 94 1016.8
20201031061623 46 202 2.0 2.0 0.00 0.18 0.00 94 1016.7
20201031061546 45 202 4.0 5.0 0.00 0.18 0.00 95 1016.5
20201031042620 45 180 3.0 4.0 0.00 0.18 0.00 94 1016.2
20201031041641 44 157 4.0 5.0 0.00 0.18 0.00 93 1016.1
20201031040620 45 157 3.0 5.0 0.00 0.18 0.00 93 1016.1
20201031035628 46 180 3.0 5.0 0.00 0.18 0.00 93 1016.1
20201031034624 46 225 3.0 3.0 0.00 0.18 0.00 94 1016.1
20201031033638 45 157 3.0 4.0 0.00 0.18 0.00 93 1016.1
20201031032619 45 180 3.0 4.0 0.00 0.18 0.00 93 1016.0
20201031031637 46 180 3.0 4.0 0.00 0.18 0.00 92 1015.9
20201031030619 47 202 2.0 3.0 0.00 0.18 0.00 93 1015.9
20201031025620 47 202 2.0 2.0 0.00 0.18 0.00 93 1015.7
20201031024622 47 202 1.0 2.0 0.00 0.18 0.00 93 1015.8
20201031023617 48 247 3.0 4.0 0.00 0.18 0.00 93 1015.6
20201031022617 49 247 4.0 5.0 0.00 0.18 0.00 94 1015.4
20201031021619 48 225 3.0 4.0 0.00 0.18 0.00 93 1015.4
20201031020619 49 225 1.0 2.0 0.00 0.18 0.00 93 1015.3
20201031015620 49 247 3.0 3.0 0.00 0.18 0.00 93 1015.5